DTTXDTTB

Guest
Details From DTTX - THYNA
To DTTB - SIDI AHMED AIR BASE
Flight Number -
Tags generated
Created
Modified
Stats Distance 158 nm / 293 km
Max Altitude 14,500 ft / 4,420 m
Waypoints 3
Social Downloads 0
Likes 0
Share VATSIM

Download

Looking for another format? Having issues loading an existing format? Contact us
Advertisement - Login to hide

Notes

Basic altitude profile: - Ascent Rate: 2500ft/min - Ascent Speed: 250kts - Cruise Altitude: 35000ft - Cruise Speed: 420kts - Descent Rate: 1500ft/min - Descent Speed: 250kts

Route

DTTX LOBNA DTTB

ID Type Via Altitude Latitude Longitude Leg Dist Tot Dist Heading (true) Name
O DTTX APT - 0 ft / 0 m 34.71756˚ 10.69083˚ - 0 nm - THYNA
LOBNA FIX - 14,500 ft / 4,420 m 36.15278˚ 10.13972˚ 90 nm 90 nm 343° / 342° -
O DTTB APT - 0 ft / 0 m 37.24472˚ 9.79276˚ 67 nm 157 nm 346° / 346° SIDI AHMED AIR BASE

Altitude Profile

Advertisement - Login to hide

DTTX

Details ICAO DTTX (SFA)
Name THYNA
Region Tunisia
Timezone Africa/Tunis (UTC+1.0)
Stats Elevation 85 ft / 26 m (AMSL)
Location 34.717558° 10.690831°
Runways 1
Magnetic Variation 2.364° E

METAR

DTTX 171600Z 00000KT 9999 FEW020 15/M02 Q1021 NOSIG

Decode

TAF

Not found

Departure Runways

ID Width Length Bearing (true) Bearing (mag) Surface Threshold Offset Overrun Length
15 148 ft / 45 m 9,874 ft / 3,010 m 148.10° 145.74° Concrete 0 ft / 0 m 197 ft / 60 m
33 148 ft / 45 m 9,874 ft / 3,010 m 328.11° 325.75° Concrete 0 ft / 0 m 197 ft / 60 m

DTTB

Details ICAO DTTB
Name SIDI AHMED AIR BASE
Region Tunisia
Timezone Africa/Tunis (UTC+1.0)
Stats Elevation 20 ft / 6 m (AMSL)
Location 37.244723° 9.792761°
Runways 2
Magnetic Variation 2.348° E

METAR

DTTB 171600Z 30016KT 9999 SCT016 FEW023CB SCT030 10/05 Q1020 RMK CB/N

Decode

TAF

Not found

Destination Runways

ID Width Length Bearing (true) Bearing (mag) Surface Threshold Offset Overrun Length
08 166 ft / 51 m 9,825 ft / 2,995 m 81.89° 79.54° Asphalt 0 ft / 0 m 1,145 ft / 349 m
11 164 ft / 50 m 3,969 ft / 1,210 m 110.85° 108.50° Concrete 0 ft / 0 m 0 ft / 0 m
26 166 ft / 51 m 9,825 ft / 2,995 m 261.91° 259.56° Asphalt 0 ft / 0 m 0 ft / 0 m
29 164 ft / 50 m 3,969 ft / 1,210 m 290.86° 288.51° Concrete 0 ft / 0 m 0 ft / 0 m